createdAt,value
2023-02-22T00:01:50.863Z,97191.47
2023-02-22T00:04:21.297Z,97222.16
2023-02-22T00:06:49.521Z,97216.81
2023-02-22T00:09:20.622Z,97216.78
2023-02-22T00:11:48.733Z,97216.50
2023-02-22T00:14:15.908Z,97228.81
2023-02-22T00:16:42.488Z,97215.41
2023-02-22T00:19:10.587Z,97217.03
2023-02-22T00:21:37.533Z,97224.78
2023-02-22T00:24:23.251Z,97224.16
2023-02-22T00:26:52.160Z,97215.94
2023-02-22T00:29:18.764Z,97213.78
2023-02-22T00:31:45.545Z,97209.75
2023-02-22T00:34:13.876Z,97215.22
2023-02-22T00:36:49.352Z,97216.75
2023-02-22T00:39:16.565Z,97214.47
2023-02-22T00:41:43.652Z,97213.81
2023-02-22T00:44:10.500Z,97219.59
2023-02-22T00:46:37.348Z,97200.75
2023-02-22T00:49:05.279Z,97218.16
2023-02-22T00:51:31.849Z,97225.41
2023-02-22T00:53:58.502Z,97215.91
2023-02-22T00:56:25.354Z,97209.09
2023-02-22T00:58:51.845Z,97214.47
2023-02-22T01:01:18.718Z,97184.72
2023-02-22T01:03:46.099Z,97196.31
2023-02-22T01:06:12.690Z,97205.28
2023-02-22T01:08:44.370Z,97209.69
2023-02-22T01:11:10.958Z,97208.59
2023-02-22T01:13:38.349Z,97201.50
2023-02-22T01:16:08.302Z,97198.84
2023-02-22T01:18:38.123Z,97196.22
2023-02-22T01:21:05.553Z,97198.47
2023-02-22T01:23:32.300Z,97186.97
2023-02-22T01:25:58.977Z,97190.75
2023-02-22T01:28:25.522Z,97195.19
2023-02-22T01:30:52.692Z,97198.25
2023-02-22T01:33:19.358Z,97184.84
2023-02-22T01:35:46.518Z,97190.88
2023-02-22T01:38:14.231Z,97194.03
2023-02-22T01:40:43.281Z,97188.16
2023-02-22T01:43:29.556Z,97183.09
2023-02-22T01:46:02.178Z,97182.44
2023-02-22T01:48:31.382Z,97174.63
2023-02-22T01:51:18.374Z,97185.75
2023-02-22T01:53:55.283Z,97179.06
2023-02-22T01:56:25.361Z,97178.25
2023-02-22T01:59:11.698Z,97181.41
2023-02-22T02:01:39.786Z,97179.47
2023-02-22T02:04:20.722Z,97178.25
2023-02-22T02:06:48.310Z,97180.41
2023-02-22T02:09:20.365Z,97179.28
2023-02-22T02:11:47.558Z,97169.06
2023-02-22T02:14:15.219Z,97182.84
2023-02-22T02:16:45.805Z,97190.41
2023-02-22T02:19:49.801Z,97168.19
2023-02-22T02:22:16.302Z,97172.81
2023-02-22T02:25:18.156Z,97182.84
2023-02-22T02:28:19.754Z,97185.72
2023-02-22T02:30:56.974Z,97184.91
2023-02-22T02:33:33.082Z,97188.78
2023-02-22T02:36:02.367Z,97183.94
2023-02-22T02:38:38.036Z,97187.22
2023-02-22T02:41:19.512Z,97174.59
2023-02-22T02:43:48.289Z,97186.78
2023-02-22T02:46:22.046Z,97184.69
2023-02-22T02:48:56.938Z,97188.22
2023-02-22T02:51:29.393Z,97190.19
2023-02-22T02:53:56.739Z,97186.22
2023-02-22T02:56:26.050Z,97181.13
2023-02-22T02:58:54.133Z,97194.16
2023-02-22T03:01:26.700Z,97199.41
2023-02-22T03:04:04.286Z,97192.81
2023-02-22T03:06:39.543Z,97197.31
2023-02-22T03:09:27.944Z,97195.66
2023-02-22T03:12:19.395Z,97196.41
2023-02-22T03:15:09.027Z,97200.72
2023-02-22T03:17:52.723Z,97190.97
2023-02-22T03:20:33.540Z,97208.69
2023-02-22T03:23:39.101Z,97202.34
2023-02-22T03:26:13.181Z,97213.38
2023-02-22T03:28:43.811Z,97210.28
2023-02-22T03:31:26.131Z,97215.13
2023-02-22T03:33:58.475Z,97200.19
2023-02-22T03:36:33.944Z,97221.09
2023-02-22T03:39:04.290Z,97219.94
2023-02-22T03:41:32.289Z,97218.31
2023-02-22T03:44:09.482Z,97231.06
2023-02-22T03:46:40.302Z,97221.19
2023-02-22T03:49:17.645Z,97219.97
2023-02-22T03:51:44.364Z,97227.81
2023-02-22T03:54:16.318Z,97227.81
2023-02-22T03:56:50.009Z,97225.41
2023-02-22T03:59:17.730Z,97225.41
2023-02-22T04:01:44.412Z,97224.56
2023-02-22T04:04:11.054Z,97226.91
2023-02-22T04:06:37.811Z,97223.75
2023-02-22T04:09:04.585Z,97227.00
2023-02-22T04:11:31.109Z,97223.09
2023-02-22T04:13:58.435Z,97234.69
2023-02-22T04:16:24.862Z,97237.47
2023-02-22T04:18:51.386Z,97231.97
2023-02-22T04:21:18.235Z,97235.91
2023-02-22T04:23:45.005Z,97222.53
2023-02-22T04:26:11.560Z,97230.78
2023-02-22T04:28:38.123Z,97230.41
2023-02-22T04:31:04.847Z,97228.41
2023-02-22T04:33:31.376Z,97243.03
2023-02-22T04:35:58.053Z,97233.94
2023-02-22T04:38:28.305Z,97233.16
2023-02-22T04:40:56.113Z,97237.84
2023-02-22T04:43:22.803Z,97235.91
2023-02-22T04:45:49.373Z,97231.19
2023-02-22T04:48:16.075Z,97243.00
2023-02-22T04:50:42.744Z,97246.19
2023-02-22T04:53:09.284Z,97254.06
2023-02-22T04:55:35.899Z,97247.03
2023-02-22T04:58:02.468Z,97247.78
2023-02-22T05:00:29.343Z,97243.00
2023-02-22T05:02:56.036Z,97237.50
2023-02-22T05:05:23.169Z,97246.59
2023-02-22T05:07:50.436Z,97261.28
2023-02-22T05:10:17.044Z,97260.88
2023-02-22T05:12:43.583Z,97262.03
2023-02-22T05:15:10.964Z,97262.81
2023-02-22T05:17:37.481Z,97271.13
2023-02-22T05:20:05.427Z,97254.97
2023-02-22T05:22:32.062Z,97260.50
2023-02-22T05:24:58.535Z,97263.28
2023-02-22T05:27:25.412Z,97259.75
2023-02-22T05:29:51.979Z,97265.28
2023-02-22T05:32:18.624Z,97270.81
2023-02-22T05:34:45.727Z,97276.78
2023-02-22T05:37:12.240Z,97277.94
2023-02-22T05:39:39.038Z,97275.53
2023-02-22T05:42:05.571Z,97282.66
2023-02-22T05:44:32.147Z,97286.59
2023-02-22T05:46:58.680Z,97289.78
2023-02-22T05:49:25.265Z,97292.94
2023-02-22T05:51:51.880Z,97290.19
2023-02-22T05:54:18.399Z,97292.56
2023-02-22T05:56:44.945Z,97292.56
2023-02-22T05:59:11.500Z,97288.59
2023-02-22T06:01:38.207Z,97296.50
2023-02-22T06:04:04.854Z,97297.69
2023-02-22T06:06:31.413Z,97297.69
2023-02-22T06:08:57.986Z,97300.06
2023-02-22T06:11:24.576Z,97302.00
2023-02-22T06:13:52.766Z,97311.88
2023-02-22T06:16:23.904Z,97311.84
2023-02-22T06:18:50.640Z,97306.66
2023-02-22T06:21:17.835Z,97311.59
2023-02-22T06:23:44.620Z,97309.78
2023-02-22T06:26:11.154Z,97305.81
2023-02-22T06:28:37.736Z,97305.75
2023-02-22T06:31:04.417Z,97295.84
2023-02-22T06:33:31.010Z,97298.34
2023-02-22T06:35:57.543Z,97296.19
2023-02-22T06:38:25.746Z,97297.03
2023-02-22T06:40:52.314Z,97293.59
2023-02-22T06:43:18.965Z,97281.53
2023-02-22T06:45:46.031Z,97280.78
2023-02-22T06:48:13.236Z,97278.00
2023-02-22T06:50:39.858Z,97270.81
2023-02-22T06:53:07.667Z,97270.53
2023-02-22T06:55:35.258Z,97262.88
2023-02-22T06:58:03.895Z,97267.69
2023-02-22T07:00:32.208Z,97261.13
2023-02-22T07:02:59.528Z,97262.75
2023-02-22T07:05:27.351Z,97253.50
2023-02-22T07:07:55.562Z,97261.09
2023-02-22T07:10:23.775Z,97253.38
2023-02-22T07:12:52.498Z,97234.13
2023-02-22T07:15:21.772Z,97242.13
2023-02-22T07:17:48.454Z,97253.19
2023-02-22T07:20:15.169Z,97255.47
2023-02-22T07:22:41.698Z,97249.69
2023-02-22T07:25:11.293Z,97239.50
2023-02-22T07:27:39.799Z,97239.28
2023-02-22T07:30:16.348Z,97237.13
2023-02-22T07:32:44.182Z,97231.56
2023-02-22T07:35:16.847Z,97223.09
2023-02-22T07:37:43.820Z,97212.38
2023-02-22T07:40:11.625Z,97219.19
2023-02-22T07:42:56.152Z,97217.84
2023-02-22T07:45:24.609Z,97207.88
2023-02-22T07:47:51.500Z,97212.53
2023-02-22T07:50:19.189Z,97209.75
2023-02-22T07:52:50.884Z,97210.75
2023-02-22T07:55:20.177Z,97209.47
2023-02-22T07:57:48.152Z,97197.75
2023-02-22T08:00:17.203Z,97204.44
2023-02-22T08:02:44.108Z,97203.13
2023-02-22T08:05:11.481Z,97187.84
2023-02-22T08:07:38.156Z,97193.97
2023-02-22T08:10:07.753Z,97217.28
2023-02-22T08:12:36.377Z,97219.00
2023-02-22T08:15:05.420Z,97220.88
2023-02-22T08:17:31.982Z,97212.38
2023-02-22T08:19:58.615Z,97213.13
2023-02-22T08:22:27.528Z,97211.06
2023-02-22T08:24:54.807Z,97211.97
2023-02-22T08:27:29.016Z,97202.47
2023-02-22T08:29:56.935Z,97201.00
2023-02-22T08:32:24.174Z,97181.25
2023-02-22T08:34:51.194Z,97190.53
2023-02-22T08:37:18.166Z,97186.72
2023-02-22T08:39:45.138Z,97190.13
2023-02-22T08:42:11.970Z,97177.31
2023-02-22T08:44:39.553Z,97190.63
2023-02-22T08:47:07.276Z,97201.91
2023-02-22T08:49:33.906Z,97214.06
2023-02-22T08:52:00.410Z,97221.91
2023-02-22T08:54:26.955Z,97218.00
2023-02-22T08:56:53.598Z,97220.44
2023-02-22T08:59:20.132Z,97215.22
2023-02-22T09:01:49.552Z,97208.56
2023-02-22T09:04:16.227Z,97204.41
2023-02-22T09:06:44.110Z,97212.16
2023-02-22T09:09:10.746Z,97205.66
2023-02-22T09:11:37.262Z,97203.59
2023-02-22T09:14:03.853Z,97198.47
2023-02-22T09:16:31.111Z,97211.66
2023-02-22T09:18:57.718Z,97196.78
2023-02-22T09:21:24.227Z,97196.38
2023-02-22T09:23:50.791Z,97196.13
2023-02-22T09:26:17.284Z,97187.44
2023-02-22T09:28:43.820Z,97187.50
2023-02-22T09:31:10.399Z,97186.91
2023-02-22T09:33:36.977Z,97187.09
2023-02-22T09:36:03.789Z,97178.69
2023-02-22T09:38:30.414Z,97179.81
2023-02-22T09:41:23.611Z,97171.41
2023-02-22T09:44:18.371Z,97169.38
2023-02-22T09:46:46.823Z,97162.66
2023-02-22T09:49:58.666Z,97151.94
2023-02-22T09:52:30.031Z,97146.72
2023-02-22T09:55:31.056Z,97132.69
2023-02-22T09:58:01.672Z,97134.34
2023-02-22T10:00:33.865Z,97128.00
2023-02-22T10:03:16.506Z,97125.47
2023-02-22T10:05:49.348Z,97125.03
2023-02-22T10:08:19.052Z,97119.34
2023-02-22T10:10:48.804Z,97115.50
2023-02-22T10:13:28.008Z,97118.47
2023-02-22T10:16:33.418Z,97099.75
2023-02-22T10:19:27.929Z,97097.78
2023-02-22T10:22:16.243Z,97086.41
2023-02-22T10:24:45.709Z,97085.69
2023-02-22T10:27:19.089Z,97078.00
2023-02-22T10:30:18.890Z,97076.69
2023-02-22T10:33:15.685Z,97063.69
2023-02-22T10:35:46.842Z,97056.53
2023-02-22T10:38:20.354Z,97048.13
2023-02-22T10:40:55.358Z,97039.72
2023-02-22T10:43:23.518Z,97030.94
2023-02-22T10:45:56.036Z,97025.94
2023-02-22T10:48:26.403Z,97014.38
2023-02-22T10:50:58.947Z,97015.47
2023-02-22T10:53:27.728Z,97001.59
2023-02-22T10:56:22.631Z,96999.53
2023-02-22T10:58:50.382Z,96993.88
2023-02-22T11:01:34.920Z,96990.25
2023-02-22T11:04:11.826Z,96969.56
2023-02-22T11:06:39.924Z,96983.75
2023-02-22T11:09:10.401Z,96976.81
2023-02-22T11:11:38.067Z,96968.50
2023-02-22T11:14:06.788Z,96959.69
2023-02-22T11:16:40.714Z,96958.94
2023-02-22T11:19:16.233Z,96952.94
2023-02-22T11:21:43.945Z,96958.28
2023-02-22T11:24:14.433Z,96952.47
2023-02-22T11:26:45.150Z,96940.28
2023-02-22T11:29:32.362Z,96938.97
2023-02-22T11:32:02.997Z,96922.47
2023-02-22T11:34:32.363Z,96925.19
2023-02-22T11:37:15.775Z,96929.19
2023-02-22T11:39:43.947Z,96926.09
2023-02-22T11:42:24.920Z,96929.91
2023-02-22T11:45:35.313Z,96919.91
2023-02-22T11:48:05.152Z,96910.31
2023-02-22T11:50:34.758Z,96923.78
2023-02-22T11:53:39.071Z,96916.06
2023-02-22T11:56:35.614Z,96906.94
2023-02-22T11:59:27.953Z,96907.03
2023-02-22T12:02:37.403Z,96899.13
2023-02-22T12:05:24.510Z,96897.00
2023-02-22T12:08:26.108Z,96899.59
2023-02-22T12:11:18.344Z,96899.09
2023-02-22T12:14:09.897Z,96903.16
2023-02-22T12:17:03.728Z,96886.19
2023-02-22T12:19:41.668Z,96882.25
2023-02-22T12:22:33.623Z,96875.16
2023-02-22T12:27:55.951Z,96873.28
2023-02-22T12:30:31.212Z,96868.22
2023-02-22T12:33:06.348Z,96862.41
2023-02-22T12:35:40.422Z,96871.03
2023-02-22T12:38:14.626Z,96863.66
2023-02-22T12:41:22.626Z,96858.31
2023-02-22T12:43:57.593Z,96860.09
2023-02-22T12:46:30.585Z,96853.22
2023-02-22T12:49:14.006Z,96855.00
2023-02-22T12:51:52.554Z,96851.78
2023-02-22T12:54:37.171Z,96849.75
2023-02-22T12:57:20.044Z,96852.03
2023-02-22T12:59:56.098Z,96844.84
2023-02-22T13:02:35.857Z,96846.47
2023-02-22T13:05:02.820Z,96846.63
2023-02-22T13:07:49.011Z,96838.75
2023-02-22T13:10:50.679Z,96844.75
2023-02-22T13:13:35.783Z,96841.00
2023-02-22T13:16:18.145Z,96846.00
2023-02-22T13:19:01.820Z,96848.03
2023-02-22T13:21:39.478Z,96840.69
2023-02-22T13:24:26.285Z,96837.97
2023-02-22T13:27:10.612Z,96826.78
2023-02-22T13:29:44.843Z,96823.34
2023-02-22T13:32:29.873Z,96843.66
2023-02-22T13:35:21.086Z,96837.06
2023-02-22T13:38:07.082Z,96832.66
2023-02-22T13:40:52.409Z,96834.00
2023-02-22T13:43:49.466Z,96837.53
2023-02-22T13:46:43.477Z,96825.50
2023-02-22T13:49:44.149Z,96833.34
2023-02-22T13:52:17.851Z,96817.44
2023-02-22T13:54:54.920Z,96820.03
2023-02-22T13:57:51.718Z,96813.06
2023-02-22T14:00:24.411Z,96821.50
2023-02-22T14:03:15.445Z,96816.03
2023-02-22T14:05:42.463Z,96815.19
2023-02-22T14:08:25.398Z,96824.22
2023-02-22T14:11:32.769Z,96817.66
2023-02-22T14:14:01.021Z,96806.06
2023-02-22T14:16:33.901Z,96814.94
2023-02-22T14:19:22.981Z,96808.94
2023-02-22T14:22:02.076Z,96813.13
2023-02-22T14:24:42.725Z,96811.50
2023-02-22T14:27:10.657Z,96807.78
2023-02-22T14:29:37.779Z,96807.25
2023-02-22T14:32:15.194Z,96810.72
2023-02-22T14:34:44.323Z,96810.44
2023-02-22T14:37:26.465Z,96804.16
2023-02-22T14:40:12.834Z,96801.25
2023-02-22T14:42:45.655Z,96799.50
2023-02-22T14:45:24.856Z,96799.50
2023-02-22T14:48:27.352Z,96802.13
2023-02-22T14:51:20.196Z,96793.91
2023-02-22T14:53:51.665Z,96797.88
2023-02-22T14:56:44.276Z,96804.25
2023-02-22T14:59:24.854Z,96802.34
2023-02-22T15:02:11.823Z,96799.16
2023-02-22T15:04:41.195Z,96801.41
2023-02-22T15:07:20.159Z,96794.66
2023-02-22T15:09:48.459Z,96799.63
2023-02-22T15:12:30.003Z,96787.66
2023-02-22T15:15:21.943Z,96794.41
2023-02-22T15:17:54.516Z,96791.34
2023-02-22T15:20:24.126Z,96775.34
2023-02-22T15:22:51.937Z,96787.72
2023-02-22T15:25:25.877Z,96801.91
2023-02-22T15:27:52.481Z,96793.66
2023-02-22T15:30:29.213Z,96795.09
2023-02-22T15:33:04.193Z,96802.97
2023-02-22T15:35:33.474Z,96797.50
2023-02-22T15:38:01.477Z,96802.56
2023-02-22T15:40:33.242Z,96800.63
2023-02-22T15:43:10.981Z,96804.66
2023-02-22T15:45:43.053Z,96797.84
2023-02-22T15:48:14.634Z,96801.13
2023-02-22T15:51:09.556Z,96793.59
2023-02-22T15:53:50.978Z,96803.75
2023-02-22T15:56:33.970Z,96797.00
2023-02-22T15:59:09.153Z,96767.81
2023-02-22T16:01:42.883Z,96794.91
2023-02-22T16:04:21.777Z,96794.38
2023-02-22T16:06:50.135Z,96795.69
2023-02-22T16:09:26.107Z,96799.78
2023-02-22T16:12:11.898Z,96803.66
2023-02-22T16:14:38.377Z,96803.91
2023-02-22T16:17:31.027Z,96803.13
2023-02-22T16:20:00.001Z,96806.09
2023-02-22T16:22:35.359Z,96806.28
2023-02-22T16:25:21.492Z,96806.47
2023-02-22T16:27:59.806Z,96812.94
2023-02-22T16:30:32.869Z,96811.38
2023-02-22T16:33:05.465Z,96813.50
2023-02-22T16:35:35.440Z,96822.03
2023-02-22T16:38:02.259Z,96827.78
2023-02-22T16:40:47.190Z,96833.06
2023-02-22T16:43:17.394Z,96833.22
2023-02-22T16:45:44.163Z,96837.34
2023-02-22T16:48:20.830Z,96836.94
2023-02-22T16:50:51.941Z,96839.13
2023-02-22T16:53:21.093Z,96847.19
2023-02-22T16:55:48.591Z,96846.66
2023-02-22T16:58:16.091Z,96851.06
2023-02-22T17:00:43.190Z,96846.78
2023-02-22T17:03:20.740Z,96858.56
2023-02-22T17:05:47.485Z,96859.38
2023-02-22T17:08:16.282Z,96857.19
2023-02-22T17:10:43.512Z,96861.00
2023-02-22T17:13:22.435Z,96873.47
2023-02-22T17:15:51.024Z,96865.97
2023-02-22T17:18:22.925Z,96865.97
2023-02-22T17:20:51.510Z,96883.78
2023-02-22T17:23:19.037Z,96892.53
2023-02-22T17:25:55.958Z,96903.16
2023-02-22T17:28:24.706Z,96908.78
2023-02-22T17:30:53.088Z,96910.97
2023-02-22T17:33:26.770Z,96911.88
2023-02-22T17:35:55.889Z,96906.25
2023-02-22T17:38:22.937Z,96916.25
2023-02-22T17:40:54.899Z,96916.25
2023-02-22T17:43:22.191Z,96916.56
2023-02-22T17:45:49.421Z,96923.72
2023-02-22T17:48:17.861Z,96920.44
2023-02-22T17:50:46.649Z,96926.19
2023-02-22T17:53:13.465Z,96917.75
2023-02-22T17:55:41.596Z,96918.06
2023-02-22T17:58:14.597Z,96920.53
2023-02-22T18:00:45.349Z,96912.56
2023-02-22T18:03:21.196Z,96923.47
2023-02-22T18:05:50.805Z,96925.13
2023-02-22T18:08:17.695Z,96924.91
2023-02-22T18:10:45.704Z,96901.00
2023-02-22T18:13:17.885Z,96928.94
2023-02-22T18:15:45.844Z,96926.13
2023-02-22T18:18:13.259Z,96926.28
2023-02-22T18:20:44.303Z,96932.53
2023-02-22T18:23:16.199Z,96924.84
2023-02-22T18:26:03.801Z,96922.91
2023-02-22T18:28:35.870Z,96929.56
2023-02-22T18:31:07.695Z,96920.22
2023-02-22T18:33:34.324Z,96931.25
2023-02-22T18:36:00.823Z,96927.59
2023-02-22T18:38:27.364Z,96929.03
2023-02-22T18:41:06.173Z,96938.06
2023-02-22T18:43:36.275Z,96941.41
2023-02-22T18:46:12.052Z,96941.28
2023-02-22T18:48:39.558Z,96939.69
2023-02-22T18:51:10.431Z,96936.56
2023-02-22T18:53:38.586Z,96945.13
2023-02-22T18:56:14.218Z,96951.03
2023-02-22T18:58:43.240Z,96944.38
2023-02-22T19:01:16.412Z,96949.66
2023-02-22T19:03:43.192Z,96955.06
2023-02-22T19:06:10.451Z,96939.38
2023-02-22T19:08:39.725Z,96956.50
2023-02-22T19:11:19.226Z,96959.84
2023-02-22T19:13:47.508Z,96956.16
2023-02-22T19:16:17.342Z,96958.84
2023-02-22T19:18:44.264Z,96962.69
2023-02-22T19:21:12.323Z,96949.63
2023-02-22T19:23:48.626Z,96965.50
2023-02-22T19:26:18.722Z,96977.94
2023-02-22T19:28:47.353Z,96975.34
2023-02-22T19:31:18.776Z,96970.09
2023-02-22T19:33:47.981Z,96980.72
2023-02-22T19:36:15.144Z,96985.97
2023-02-22T19:38:41.985Z,96992.25
2023-02-22T19:41:21.869Z,96993.38
2023-02-22T19:43:50.355Z,96997.38
2023-02-22T19:46:21.478Z,96997.00
2023-02-22T19:48:52.145Z,96992.75
2023-02-22T19:51:21.286Z,97006.28
2023-02-22T19:53:47.890Z,97007.81
2023-02-22T19:56:16.989Z,97009.38
2023-02-22T19:58:46.555Z,97013.41
2023-02-22T20:01:29.096Z,97017.41
2023-02-22T20:04:01.653Z,97017.53
2023-02-22T20:06:31.519Z,97017.72
2023-02-22T20:08:58.146Z,97021.03
2023-02-22T20:11:25.375Z,97019.16
2023-02-22T20:13:52.365Z,97002.03
2023-02-22T20:16:18.974Z,97024.84
2023-02-22T20:18:46.902Z,97023.81
2023-02-22T20:21:28.032Z,97025.16
2023-02-22T20:23:57.302Z,97029.50
2023-02-22T20:26:25.926Z,97030.78
2023-02-22T20:28:53.210Z,97029.69
2023-02-22T20:31:21.212Z,97036.63
2023-02-22T20:33:52.301Z,97030.66
2023-02-22T20:36:19.515Z,97039.59
2023-02-22T20:38:46.157Z,97035.75
2023-02-22T20:41:15.934Z,97012.19
2023-02-22T20:43:42.671Z,97039.31
2023-02-22T20:46:09.290Z,97041.19
2023-02-22T20:48:35.930Z,97043.13
2023-02-22T20:51:10.475Z,97040.97
2023-02-22T20:53:39.498Z,97048.53
2023-02-22T20:56:06.833Z,97042.09
2023-02-22T20:58:33.537Z,97050.66
2023-02-22T21:01:05.256Z,97019.84
2023-02-22T21:03:36.005Z,97045.78
2023-02-22T21:06:05.398Z,97042.47
2023-02-22T21:08:32.955Z,97042.47
2023-02-22T21:10:59.937Z,97043.44
2023-02-22T21:13:26.704Z,97049.63
2023-02-22T21:15:53.610Z,97032.72
2023-02-22T21:18:22.933Z,97048.41
2023-02-22T21:20:50.546Z,97049.28
2023-02-22T21:38:55.583Z,97055.53
2023-02-22T21:41:24.895Z,97051.03
2023-02-22T21:43:52.178Z,97061.56
2023-02-22T21:46:19.791Z,97051.28
2023-02-22T21:48:50.105Z,97057.44
2023-02-22T21:51:25.559Z,97041.44
2023-02-22T21:53:55.195Z,97051.28
2023-02-22T21:56:27.181Z,97049.25
2023-02-22T21:58:59.291Z,97050.88
2023-02-22T22:01:31.543Z,97051.41
2023-02-22T22:04:00.281Z,97036.34
2023-02-22T22:06:28.789Z,97046.03
2023-02-22T22:08:56.736Z,97041.84
2023-02-22T22:11:25.158Z,97037.47
2023-02-22T22:13:57.579Z,97049.75
2023-02-22T22:16:27.236Z,97055.53
2023-02-22T22:18:54.758Z,97057.28
2023-02-22T22:21:23.247Z,97057.34
2023-02-22T22:23:54.358Z,97059.72
2023-02-22T22:26:24.609Z,97060.69
2023-02-22T22:28:58.051Z,97054.25
2023-02-22T22:31:28.749Z,97062.97
2023-02-22T22:33:56.712Z,97062.13
2023-02-22T22:36:26.639Z,97062.84
2023-02-22T22:38:57.528Z,97068.53
2023-02-22T22:41:28.204Z,97062.13
2023-02-22T22:43:56.273Z,97055.84
2023-02-22T22:46:23.368Z,97064.84
2023-02-22T22:48:49.962Z,97061.13
2023-02-22T22:51:20.943Z,97056.84
2023-02-22T22:53:49.153Z,97067.34
2023-02-22T22:56:26.425Z,97052.34
2023-02-22T22:58:58.775Z,97067.59
2023-02-22T23:01:32.530Z,97064.56
2023-02-22T23:04:02.404Z,97059.34
2023-02-22T23:06:41.516Z,97073.25
2023-02-22T23:09:11.554Z,97059.16
2023-02-22T23:11:44.908Z,97070.66
2023-02-22T23:14:24.240Z,97068.66
2023-02-22T23:17:03.359Z,97068.72
2023-02-22T23:19:31.836Z,97068.00
2023-02-22T23:21:59.720Z,97072.22
2023-02-22T23:24:27.573Z,97062.47
2023-02-22T23:26:55.278Z,97067.22
2023-02-22T23:29:26.099Z,97054.59
2023-02-22T23:31:54.557Z,97059.50
2023-02-22T23:34:23.194Z,97068.88
2023-02-22T23:36:53.734Z,97070.38
2023-02-22T23:39:21.726Z,97070.88
2023-02-22T23:41:59.714Z,97056.72
2023-02-22T23:44:28.037Z,97069.00
2023-02-22T23:46:55.288Z,97069.00
2023-02-22T23:49:25.296Z,97073.19
2023-02-22T23:51:52.688Z,97063.38
2023-02-22T23:54:19.895Z,97073.94
2023-02-22T23:56:53.742Z,97073.66
2023-02-22T23:59:20.279Z,97077.56
